Time;durP1;ratioP1;P1;durP2;ratioP2;P2;SDS_P1;SDS_P2;PMS_P1;PMS_P2;Temp;Humidity;BMP_temperature;BMP_pressure;BME280_temperature;BME280_humidity;BME280_pressure;Samples;Min_cycle;Max_cycle;Signal;HPM_P1;HPM_P2
2023/11/20 00:00:13;;;;;;;1.00;0.80;;;;;;;;;;5009326;28;20057;-77
2023/11/20 00:02:42;;;;;;;1.13;0.93;;;;;;;;;;5009370;28;20019;-80
2023/11/20 00:05:12;;;;;;;1.70;1.30;;;;;;;;;;5009212;28;20462;-80
2023/11/20 00:07:38;;;;;;;1.02;0.90;;;;;;;;;;5009116;28;20030;-80
2023/11/20 00:10:04;;;;;;;1.27;1.00;;;;;;;;;;4977594;28;20030;-79
2023/11/20 00:12:32;;;;;;;1.00;0.90;;;;;;;;;;5008977;28;20027;-78
2023/11/20 00:14:58;;;;;;;1.20;1.00;;;;;;;;;;4992538;28;20029;-78
2023/11/20 00:17:24;;;;;;;0.75;0.70;;;;;;;;;;4992439;28;20085;-79
2023/11/20 00:19:51;;;;;;;1.23;0.95;;;;;;;;;;4977452;28;20023;-78
2023/11/20 00:22:17;;;;;;;0.95;0.80;;;;;;;;;;4992450;28;20360;-79
2023/11/20 00:24:44;;;;;;;8.35;1.38;;;;;;;;;;4992854;28;20069;-78
2023/11/20 00:27:10;;;;;;;1.00;0.80;;;;;;;;;;5008876;28;20474;-78
2023/11/20 00:29:39;;;;;;;1.38;1.00;;;;;;;;;;5008621;28;20126;-77
2023/11/20 00:32:06;;;;;;;1.27;1.17;;;;;;;;;;5008519;28;20386;-77
2023/11/20 00:34:32;;;;;;;1.55;1.40;;;;;;;;;;4992414;28;20034;-77
2023/11/20 00:36:59;;;;;;;1.48;1.25;;;;;;;;;;5008737;28;20050;-77
2023/11/20 00:39:25;;;;;;;3.50;2.17;;;;;;;;;;4977293;28;20101;-77
2023/11/20 00:41:51;;;;;;;3.50;1.52;;;;;;;;;;5008858;28;20463;-77
2023/11/20 00:44:17;;;;;;;5.65;1.58;;;;;;;;;;4978535;28;20031;-76
2023/11/20 00:46:43;;;;;;;1.00;0.90;;;;;;;;;;4979378;28;20027;-80
2023/11/20 00:49:09;;;;;;;2.40;1.10;;;;;;;;;;4993766;28;20038;-79
2023/11/20 00:51:35;;;;;;;1.27;0.90;;;;;;;;;;4995579;28;20035;-77
2023/11/20 00:54:01;;;;;;;2.15;1.55;;;;;;;;;;4995391;28;20038;-77
2023/11/20 00:56:28;;;;;;;2.22;2.03;;;;;;;;;;4995220;28;20050;-78
2023/11/20 00:58:55;;;;;;;1.55;1.17;;;;;;;;;;5002679;28;20042;-79
2023/11/20 01:01:21;;;;;;;1.33;0.95;;;;;;;;;;5006511;28;20038;-77
2023/11/20 01:03:47;;;;;;;0.73;0.73;;;;;;;;;;5006230;28;20030;-78
2023/11/20 01:06:13;;;;;;;1.27;1.00;;;;;;;;;;5006619;28;20033;-78
2023/11/20 01:08:39;;;;;;;0.85;0.77;;;;;;;;;;5006479;28;20092;-78
2023/11/20 01:11:09;;;;;;;1.73;1.63;;;;;;;;;;5006018;28;20129;-78
2023/11/20 01:13:35;;;;;;;1.20;1.00;;;;;;;;;;4994082;28;20022;-78
2023/11/20 01:16:02;;;;;;;1.00;0.90;;;;;;;;;;4994741;28;20093;-77
2023/11/20 01:18:28;;;;;;;1.33;1.23;;;;;;;;;;4994010;28;20027;-77
2023/11/20 01:20:54;;;;;;;1.27;1.02;;;;;;;;;;4994462;28;20077;-77
2023/11/20 01:23:20;;;;;;;1.10;1.00;;;;;;;;;;4980456;28;20031;-77
2023/11/20 01:25:46;;;;;;;1.00;0.90;;;;;;;;;;5008446;28;20023;-76
2023/11/20 01:28:13;;;;;;;1.20;0.90;;;;;;;;;;5007576;28;20077;-77
2023/11/20 01:30:39;;;;;;;0.70;0.70;;;;;;;;;;4991301;28;20434;-78
2023/11/20 01:33:05;;;;;;;3.88;1.35;;;;;;;;;;5007420;28;20026;-77
2023/11/20 01:35:31;;;;;;;1.35;0.95;;;;;;;;;;4976350;28;20379;-78
2023/11/20 01:37:57;;;;;;;0.80;0.80;;;;;;;;;;5007518;28;20038;-77
2023/11/20 01:40:23;;;;;;;1.27;1.00;;;;;;;;;;5007207;28;20103;-77
2023/11/20 01:42:49;;;;;;;0.80;0.80;;;;;;;;;;4990882;28;20055;-77
2023/11/20 01:45:15;;;;;;;2.38;1.27;;;;;;;;;;4990894;28;20047;-78
2023/11/20 01:47:42;;;;;;;1.20;1.10;;;;;;;;;;5007682;28;20073;-78
2023/11/20 01:50:10;;;;;;;1.15;0.95;;;;;;;;;;4975985;28;20038;-78
2023/11/20 01:52:39;;;;;;;2.38;1.75;;;;;;;;;;5007184;28;20022;-77
2023/11/20 01:55:05;;;;;;;0.98;0.90;;;;;;;;;;5007242;28;20023;-77
2023/11/20 01:57:31;;;;;;;1.40;1.10;;;;;;;;;;4990584;28;20471;-77
2023/11/20 01:59:58;;;;;;;1.50;1.35;;;;;;;;;;4990746;28;20037;-77
2023/11/20 02:02:24;;;;;;;1.85;1.10;;;;;;;;;;4989728;28;20047;-77
2023/11/20 02:04:51;;;;;;;0.70;0.70;;;;;;;;;;5006980;28;20019;-77
2023/11/20 02:07:17;;;;;;;1.25;1.15;;;;;;;;;;5006810;28;20022;-77
2023/11/20 02:09:45;;;;;;;0.70;0.70;;;;;;;;;;5007241;28;20797;-78
2023/11/20 02:12:11;;;;;;;0.70;0.70;;;;;;;;;;4975613;28;20188;-78
2023/11/20 02:14:37;;;;;;;1.13;0.90;;;;;;;;;;4975297;28;20038;-76
2023/11/20 02:17:03;;;;;;;1.17;1.00;;;;;;;;;;5007267;28;20027;-79
2023/11/20 02:19:29;;;;;;;1.00;0.90;;;;;;;;;;4975613;28;20095;-77
2023/11/20 02:21:56;;;;;;;1.00;0.90;;;;;;;;;;4975090;28;20027;-77
2023/11/20 02:24:22;;;;;;;1.83;1.23;;;;;;;;;;5006389;28;20033;-78
2023/11/20 02:27:04;;;;;;;2.63;1.20;;;;;;;;;;4975397;28;20066;-77
2023/11/20 02:29:33;;;;;;;0.68;0.68;;;;;;;;;;4990962;28;20019;-78
2023/11/20 02:31:59;;;;;;;1.17;0.98;;;;;;;;;;4974929;28;20465;-77
2023/11/20 02:34:25;;;;;;;1.10;0.90;;;;;;;;;;5007013;28;20026;-77
2023/11/20 02:36:51;;;;;;;1.20;1.00;;;;;;;;;;5007247;28;20443;-77
2023/11/20 02:39:17;;;;;;;1.08;1.00;;;;;;;;;;4974735;28;20058;-78
2023/11/20 02:41:45;;;;;;;1.30;1.20;;;;;;;;;;4975128;28;20494;-77
2023/11/20 02:44:11;;;;;;;1.10;0.90;;;;;;;;;;4975321;28;20027;-76
2023/11/20 02:46:38;;;;;;;1.30;1.20;;;;;;;;;;5006347;28;20105;-79
2023/11/20 02:49:04;;;;;;;1.38;1.05;;;;;;;;;;4990120;28;20478;-78
2023/11/20 02:51:30;;;;;;;1.45;0.90;;;;;;;;;;4974871;28;20023;-77
2023/11/20 02:53:56;;;;;;;1.48;1.20;;;;;;;;;;4974942;28;20069;-76
2023/11/20 02:56:24;;;;;;;1.70;1.23;;;;;;;;;;4990037;28;20471;-76
2023/11/20 02:58:51;;;;;;;1.70;1.38;;;;;;;;;;5006263;28;20117;-78
2023/11/20 03:01:17;;;;;;;1.00;0.80;;;;;;;;;;4990010;28;20097;-77
2023/11/20 03:03:43;;;;;;;0.80;0.80;;;;;;;;;;4974592;28;20024;-78
2023/11/20 03:06:09;;;;;;;1.10;1.00;;;;;;;;;;5006036;28;20022;-78
2023/11/20 03:08:36;;;;;;;0.95;0.85;;;;;;;;;;5006153;28;20030;-78
2023/11/20 03:11:02;;;;;;;1.10;0.80;;;;;;;;;;5006167;28;20034;-77
2023/11/20 03:13:28;;;;;;;0.88;0.80;;;;;;;;;;5007693;28;20375;-77
2023/11/20 03:15:56;;;;;;;1.42;0.93;;;;;;;;;;4994726;28;20030;-77
2023/11/20 03:18:22;;;;;;;1.08;0.95;;;;;;;;;;5010085;28;20471;-77
2023/11/20 03:20:48;;;;;;;0.93;0.82;;;;;;;;;;4993471;28;20486;-77
2023/11/20 03:23:15;;;;;;;1.75;1.30;;;;;;;;;;4994033;28;20481;-77
2023/11/20 03:25:41;;;;;;;0.90;0.85;;;;;;;;;;5009898;28;20117;-78
2023/11/20 03:28:07;;;;;;;1.10;0.93;;;;;;;;;;5009693;28;20078;-77
2023/11/20 03:30:34;;;;;;;0.85;0.75;;;;;;;;;;4978444;28;20038;-78
2023/11/20 03:33:00;;;;;;;1.10;1.00;;;;;;;;;;4978542;28;20471;-77
2023/11/20 03:35:26;;;;;;;2.78;1.25;;;;;;;;;;4978022;28;20498;-77
2023/11/20 03:37:52;;;;;;;1.40;1.13;;;;;;;;;;5009914;28;20077;-77
2023/11/20 03:40:18;;;;;;;1.45;1.25;;;;;;;;;;4993259;28;20047;-77
2023/11/20 03:42:46;;;;;;;1.08;0.90;;;;;;;;;;4993190;28;20419;-76
2023/11/20 03:45:12;;;;;;;1.75;1.00;;;;;;;;;;5009571;28;20467;-77
2023/11/20 03:47:38;;;;;;;1.65;1.30;;;;;;;;;;4978377;28;20026;-76
2023/11/20 03:50:04;;;;;;;1.88;1.15;;;;;;;;;;5009653;28;20520;-78
2023/11/20 03:52:30;;;;;;;1.10;1.00;;;;;;;;;;5009446;28;20471;-77
2023/11/20 03:54:57;;;;;;;1.48;1.30;;;;;;;;;;4977993;28;20063;-79
2023/11/20 03:57:24;;;;;;;1.67;1.20;;;;;;;;;;4993873;28;20126;-76
2023/11/20 03:59:50;;;;;;;3.65;2.03;;;;;;;;;;4992966;28;20026;-77
2023/11/20 04:02:16;;;;;;;1.65;1.35;;;;;;;;;;4978043;28;20030;-77
2023/11/20 04:04:43;;;;;;;1.85;1.73;;;;;;;;;;4993065;28;20033;-77
2023/11/20 04:07:09;;;;;;;2.38;2.17;;;;;;;;;;5009314;28;20022;-76
2023/11/20 04:09:35;;;;;;;2.13;1.92;;;;;;;;;;4992752;28;20023;-77
2023/11/20 04:12:01;;;;;;;2.08;1.17;;;;;;;;;;4977544;28;20440;-76
2023/11/20 04:14:28;;;;;;;0.95;0.85;;;;;;;;;;4992815;28;20351;-77
2023/11/20 04:16:54;;;;;;;2.45;1.48;;;;;;;;;;4977474;28;20015;-77
2023/11/20 04:19:20;;;;;;;0.85;0.80;;;;;;;;;;5009106;28;20046;-77
2023/11/20 04:21:47;;;;;;;1.10;0.90;;;;;;;;;;4977700;28;20073;-77
2023/11/20 04:24:14;;;;;;;1.92;1.05;;;;;;;;;;5008509;28;20031;-78
2023/11/20 04:26:40;;;;;;;1.33;1.10;;;;;;;;;;5008659;28;20023;-80
2023/11/20 04:29:06;;;;;;;2.40;1.58;;;;;;;;;;5009740;28;20101;-79
2023/11/20 04:31:32;;;;;;;1.02;0.82;;;;;;;;;;4992577;28;20474;-79
2023/11/20 04:33:58;;;;;;;1.90;1.15;;;;;;;;;;5008714;28;20406;-80
2023/11/20 04:36:24;;;;;;;1.70;1.10;;;;;;;;;;4992282;28;20030;-77
2023/11/20 04:38:50;;;;;;;3.70;1.88;;;;;;;;;;4977494;28;20058;-77
2023/11/20 04:41:17;;;;;;;1.75;1.35;;;;;;;;;;5008715;28;20438;-78
2023/11/20 04:43:43;;;;;;;2.17;1.30;;;;;;;;;;4992146;28;20058;-77
2023/11/20 04:46:09;;;;;;;1.70;1.10;;;;;;;;;;4992982;28;20110;-77
2023/11/20 04:48:35;;;;;;;1.42;1.33;;;;;;;;;;5008439;28;20030;-77
2023/11/20 04:51:01;;;;;;;1.17;0.90;;;;;;;;;;4977152;28;20035;-77
2023/11/20 04:53:27;;;;;;;1.30;1.20;;;;;;;;;;4977168;28;20058;-77
2023/11/20 04:55:54;;;;;;;1.10;0.90;;;;;;;;;;4977252;28;20025;-78
2023/11/20 04:58:21;;;;;;;1.60;1.10;;;;;;;;;;5008412;28;20471;-77
2023/11/20 05:00:51;;;;;;;2.00;1.60;;;;;;;;;;4977088;28;20038;-77
2023/11/20 05:03:17;;;;;;;1.25;1.15;;;;;;;;;;4977041;28;20027;-77
2023/11/20 05:05:43;;;;;;;1.30;0.98;;;;;;;;;;4977077;28;20023;-76
2023/11/20 05:08:10;;;;;;;1.33;1.23;;;;;;;;;;5011974;28;20038;-75
2023/11/20 05:10:37;;;;;;;1.30;0.93;;;;;;;;;;4981823;28;20030;-76
2023/11/20 05:13:03;;;;;;;1.45;1.20;;;;;;;;;;5012930;28;20093;-75
2023/11/20 05:15:29;;;;;;;1.20;1.00;;;;;;;;;;5013934;28;20024;-77
2023/11/20 05:17:55;;;;;;;1.38;1.10;;;;;;;;;;4994656;28;20054;-78
2023/11/20 05:20:22;;;;;;;1.40;1.10;;;;;;;;;;5007851;28;20058;-79
2023/11/20 05:22:48;;;;;;;1.00;0.90;;;;;;;;;;5007931;28;20058;-77
2023/11/20 05:25:14;;;;;;;0.93;0.85;;;;;;;;;;4991581;28;20027;-77
2023/11/20 05:27:40;;;;;;;1.52;1.13;;;;;;;;;;4991533;28;20027;-77
2023/11/20 05:30:07;;;;;;;1.42;1.10;;;;;;;;;;4976287;28;20023;-78
2023/11/20 05:32:33;;;;;;;1.10;0.90;;;;;;;;;;4976438;28;20022;-77
2023/11/20 05:34:59;;;;;;;1.42;1.00;;;;;;;;;;5008492;28;20053;-78
2023/11/20 05:37:25;;;;;;;1.58;1.25;;;;;;;;;;4991100;28;20147;-77
2023/11/20 05:39:52;;;;;;;1.13;0.85;;;;;;;;;;4976124;28;20055;-77
2023/11/20 05:42:18;;;;;;;1.30;0.98;;;;;;;;;;5007274;28;20027;-77
2023/11/20 05:44:44;;;;;;;1.17;1.05;;;;;;;;;;4976138;28;20027;-77
2023/11/20 05:47:10;;;;;;;1.70;1.23;;;;;;;;;;5007232;28;20042;-77
2023/11/20 05:49:37;;;;;;;1.33;0.90;;;;;;;;;;5007434;28;20122;-79
2023/11/20 05:52:04;;;;;;;2.17;1.30;;;;;;;;;;5006923;28;20023;-79
2023/11/20 05:54:30;;;;;;;1.23;0.93;;;;;;;;;;4991143;28;20173;-78
2023/11/20 05:56:57;;;;;;;1.00;0.90;;;;;;;;;;5007373;28;20236;-76
2023/11/20 05:59:23;;;;;;;1.60;1.25;;;;;;;;;;4991484;28;20402;-78
2023/11/20 06:01:49;;;;;;;1.17;0.90;;;;;;;;;;5006921;28;20062;-77
2023/11/20 06:04:15;;;;;;;3.50;2.17;;;;;;;;;;5007056;28;20339;-78
2023/11/20 06:06:41;;;;;;;1.90;1.13;;;;;;;;;;5007030;28;20034;-77
2023/11/20 06:09:10;;;;;;;1.52;1.20;;;;;;;;;;4975535;28;20034;-78
2023/11/20 06:11:36;;;;;;;2.03;1.92;;;;;;;;;;4990582;28;20356;-77
2023/11/20 06:14:03;;;;;;;1.52;1.10;;;;;;;;;;5007467;28;20089;-80
2023/11/20 06:16:29;;;;;;;1.80;1.40;;;;;;;;;;5006809;28;20447;-79
2023/11/20 06:18:56;;;;;;;3.03;2.33;;;;;;;;;;5007141;28;20093;-77
2023/11/20 06:21:22;;;;;;;1.58;1.05;;;;;;;;;;5006652;28;20386;-77
2023/11/20 06:23:48;;;;;;;2.10;1.27;;;;;;;;;;5007275;28;20023;-78
2023/11/20 06:26:15;;;;;;;1.63;1.05;;;;;;;;;;5006630;28;20027;-76
2023/11/20 06:28:42;;;;;;;1.98;1.25;;;;;;;;;;5006513;28;20023;-77
2023/11/20 06:31:08;;;;;;;3.13;2.08;;;;;;;;;;5006765;28;20027;-77
2023/11/20 06:33:34;;;;;;;1.05;0.90;;;;;;;;;;4975336;28;20089;-79
2023/11/20 06:36:02;;;;;;;1.27;1.17;;;;;;;;;;5006390;28;20023;-77
2023/11/20 06:38:29;;;;;;;2.10;1.42;;;;;;;;;;4975181;28;20022;-80
2023/11/20 06:40:56;;;;;;;1.45;1.17;;;;;;;;;;4989937;28;20058;-79
2023/11/20 06:43:22;;;;;;;1.55;1.45;;;;;;;;;;5006536;28;20027;-77
2023/11/20 06:45:48;;;;;;;1.70;1.27;;;;;;;;;;4975223;28;20029;-77
2023/11/20 06:48:14;;;;;;;2.30;1.65;;;;;;;;;;5005885;28;20019;-77
2023/11/20 06:50:41;;;;;;;1.38;1.08;;;;;;;;;;4990038;28;20027;-79
2023/11/20 06:53:09;;;;;;;1.30;1.20;;;;;;;;;;4975344;28;20018;-78
2023/11/20 06:55:35;;;;;;;3.75;1.60;;;;;;;;;;4975366;28;20019;-77
2023/11/20 06:58:02;;;;;;;1.40;1.08;;;;;;;;;;4974964;28;20034;-78
2023/11/20 07:00:28;;;;;;;1.65;1.55;;;;;;;;;;4974644;28;20471;-77
2023/11/20 07:02:54;;;;;;;1.65;1.10;;;;;;;;;;5006307;28;20033;-77
2023/11/20 07:05:21;;;;;;;1.65;1.08;;;;;;;;;;4974763;28;20022;-79
2023/11/20 07:07:52;;;;;;;1.75;1.27;;;;;;;;;;5006896;28;20114;-78
2023/11/20 07:10:25;;;;;;;3.83;2.08;;;;;;;;;;4975293;28;20063;-77
2023/11/20 07:12:54;;;;;;;2.40;1.98;;;;;;;;;;4990033;28;20030;-78
2023/11/20 07:15:21;;;;;;;9.68;3.38;;;;;;;;;;4974816;28;20023;-77
2023/11/20 07:17:48;;;;;;;1.83;1.40;;;;;;;;;;5006653;28;20386;-80
2023/11/20 07:20:15;;;;;;;1.88;1.55;;;;;;;;;;5005997;28;20029;-77
2023/11/20 07:22:41;;;;;;;1.45;1.25;;;;;;;;;;5006073;28;20049;-77
2023/11/20 07:25:07;;;;;;;6.85;2.17;;;;;;;;;;4989404;28;20463;-77
2023/11/20 07:27:35;;;;;;;1.55;1.20;;;;;;;;;;4974869;28;20109;-78
2023/11/20 07:30:02;;;;;;;2.55;1.92;;;;;;;;;;5006009;28;20046;-79
2023/11/20 07:32:28;;;;;;;1.42;1.13;;;;;;;;;;4974484;28;20019;-78
2023/11/20 07:34:55;;;;;;;2.42;1.48;;;;;;;;;;4989550;28;20095;-78
2023/11/20 07:37:21;;;;;;;1.88;1.27;;;;;;;;;;5006548;28;20114;-77
2023/11/20 07:39:48;;;;;;;3.60;1.75;;;;;;;;;;5005850;28;20050;-77
2023/11/20 07:42:17;;;;;;;1.92;1.38;;;;;;;;;;5005725;28;20065;-78
2023/11/20 07:44:43;;;;;;;3.78;1.98;;;;;;;;;;4989541;28;20418;-78
2023/11/20 07:47:10;;;;;;;3.33;1.40;;;;;;;;;;4974301;28;20106;-78
2023/11/20 07:49:38;;;;;;;1.33;1.20;;;;;;;;;;4989452;28;20078;-79
2023/11/20 07:52:05;;;;;;;2.20;1.55;;;;;;;;;;4989515;28;20122;-77
2023/11/20 07:54:32;;;;;;;2.20;1.70;;;;;;;;;;4989286;28;20386;-78
2023/11/20 07:56:58;;;;;;;1.30;1.15;;;;;;;;;;4989482;28;20471;-80
2023/11/20 07:59:24;;;;;;;1.25;1.13;;;;;;;;;;4989269;28;20058;-77
2023/11/20 08:01:51;;;;;;;1.80;1.52;;;;;;;;;;4977673;28;20050;-77
2023/11/20 08:04:17;;;;;;;3.72;2.50;;;;;;;;;;5009152;28;20023;-77
2023/11/20 08:06:46;;;;;;;1.50;1.08;;;;;;;;;;5008887;28;20023;-77
2023/11/20 08:09:13;;;;;;;1.30;1.10;;;;;;;;;;5009275;28;20061;-77
2023/11/20 08:11:41;;;;;;;2.55;1.77;;;;;;;;;;4977794;28;20077;-79
2023/11/20 08:14:07;;;;;;;1.58;1.27;;;;;;;;;;4992519;28;20019;-77
2023/11/20 08:16:33;;;;;;;1.52;1.30;;;;;;;;;;4978088;28;20023;-77
2023/11/20 08:19:02;;;;;;;8.63;2.75;;;;;;;;;;4992607;28;20026;-78
2023/11/20 08:21:28;;;;;;;1.38;1.27;;;;;;;;;;5008850;28;20034;-77
2023/11/20 08:23:55;;;;;;;1.40;1.10;;;;;;;;;;4977614;28;20023;-78
2023/11/20 08:26:21;;;;;;;2.00;1.27;;;;;;;;;;5008931;28;20019;-77
2023/11/20 08:28:47;;;;;;;9.25;1.58;;;;;;;;;;4977097;28;20026;-78
2023/11/20 08:31:14;;;;;;;0.75;0.75;;;;;;;;;;4992364;28;20625;-78
2023/11/20 08:33:40;;;;;;;3.33;1.20;;;;;;;;;;5008669;28;20106;-77
2023/11/20 08:36:08;;;;;;;1.48;1.10;;;;;;;;;;5008598;28;20019;-77
2023/11/20 08:38:34;;;;;;;2.58;1.67;;;;;;;;;;4992228;28;20026;-77
2023/11/20 08:41:00;;;;;;;1.45;1.10;;;;;;;;;;4992008;28;20078;-77
2023/11/20 08:43:27;;;;;;;1.55;1.25;;;;;;;;;;5008263;28;20511;-76
2023/11/20 08:45:54;;;;;;;2.33;1.85;;;;;;;;;;5008368;28;20471;-77
2023/11/20 08:48:20;;;;;;;1.52;1.13;;;;;;;;;;5008446;28;20058;-77
2023/11/20 08:50:46;;;;;;;1.20;1.05;;;;;;;;;;4991998;28;20027;-79
2023/11/20 08:53:12;;;;;;;1.27;0.98;;;;;;;;;;5008259;28;20054;-78
2023/11/20 08:55:38;;;;;;;0.82;0.80;;;;;;;;;;4977168;28;20023;-79
2023/11/20 08:58:04;;;;;;;1.30;1.15;;;;;;;;;;4991988;28;20077;-79
2023/11/20 09:00:30;;;;;;;2.20;1.10;;;;;;;;;;5008385;28;20018;-79
2023/11/20 09:02:57;;;;;;;1.65;1.38;;;;;;;;;;5008186;28;20096;-79
2023/11/20 09:05:23;;;;;;;1.10;1.00;;;;;;;;;;5008428;28;20023;-79
2023/11/20 09:07:49;;;;;;;1.67;1.10;;;;;;;;;;4991715;28;20054;-78
2023/11/20 09:10:15;;;;;;;1.08;0.98;;;;;;;;;;4991354;28;20023;-80
2023/11/20 09:12:42;;;;;;;1.10;0.90;;;;;;;;;;4991426;28;20034;-79
2023/11/20 09:15:10;;;;;;;1.15;1.05;;;;;;;;;;4976319;28;20019;-80
2023/11/20 09:17:37;;;;;;;0.80;0.75;;;;;;;;;;5007694;28;20023;-79
2023/11/20 09:20:03;;;;;;;1.10;1.00;;;;;;;;;;4991544;28;20027;-79
2023/11/20 09:22:30;;;;;;;2.13;1.23;;;;;;;;;;4991338;28;20038;-79
2023/11/20 09:24:56;;;;;;;1.30;1.00;;;;;;;;;;5007584;28;20541;-79
2023/11/20 09:27:23;;;;;;;1.58;1.00;;;;;;;;;;4991135;28;20081;-78
2023/11/20 09:29:49;;;;;;;1.13;0.82;;;;;;;;;;4991381;28;20022;-79
2023/11/20 09:32:15;;;;;;;3.72;1.35;;;;;;;;;;4991110;28;20110;-80
2023/11/20 09:34:43;;;;;;;1.70;1.17;;;;;;;;;;5007530;28;20031;-80
2023/11/20 09:37:09;;;;;;;1.60;1.35;;;;;;;;;;5008204;28;20486;-80
2023/11/20 09:39:35;;;;;;;2.00;1.40;;;;;;;;;;4990909;28;20054;-82
2023/11/20 09:42:02;;;;;;;1.60;1.48;;;;;;;;;;4976211;28;20474;-80
2023/11/20 09:44:34;;;;;;;5.03;1.52;;;;;;;;;;5007417;28;20118;-81
2023/11/20 09:47:02;;;;;;;2.13;1.25;;;;;;;;;;5007597;28;20023;-82
2023/11/20 09:49:31;;;;;;;1.70;1.38;;;;;;;;;;5007478;28;20122;-82
2023/11/20 09:51:57;;;;;;;2.20;1.75;;;;;;;;;;4990862;28;20058;-84
2023/11/20 09:54:24;;;;;;;4.57;1.38;;;;;;;;;;5007380;28;20526;-81
2023/11/20 09:56:51;;;;;;;2.08;1.55;;;;;;;;;;5007190;28;20054;-82
2023/11/20 09:59:17;;;;;;;2.22;1.70;;;;;;;;;;4991228;28;20430;-81
2023/11/20 10:01:45;;;;;;;1.33;1.08;;;;;;;;;;5007400;28;20030;-82
2023/11/20 10:04:16;;;;;;;1.33;1.02;;;;;;;;;;5007475;28;20528;-81
2023/11/20 10:06:43;;;;;;;1.38;1.00;;;;;;;;;;4975849;28;20367;-79
2023/11/20 10:09:09;;;;;;;1.25;0.95;;;;;;;;;;4990653;28;20026;-79
2023/11/20 10:11:37;;;;;;;1.48;0.95;;;;;;;;;;5006801;28;20030;-78
2023/11/20 10:14:03;;;;;;;1.10;0.85;;;;;;;;;;5006701;28;20023;-78
2023/11/20 10:16:32;;;;;;;1.10;1.00;;;;;;;;;;4990559;28;20023;-82
2023/11/20 10:18:58;;;;;;;0.90;0.75;;;;;;;;;;5007159;28;20085;-81
2023/11/20 10:21:25;;;;;;;1.10;0.93;;;;;;;;;;4975163;28;20434;-80
2023/11/20 10:23:54;;;;;;;0.70;0.68;;;;;;;;;;4988650;28;20033;-80
2023/11/20 10:26:21;;;;;;;0.80;0.80;;;;;;;;;;4993383;28;20034;-80
2023/11/20 10:28:47;;;;;;;1.05;0.80;;;;;;;;;;4993418;28;20058;-80
2023/11/20 10:31:13;;;;;;;5.47;1.17;;;;;;;;;;4994724;28;20026;-80
2023/11/20 10:33:39;;;;;;;0.70;0.70;;;;;;;;;;4991188;28;20085;-80
2023/11/20 10:36:12;;;;;;;0.75;0.70;;;;;;;;;;4993468;28;20058;-81
2023/11/20 10:38:38;;;;;;;1.00;0.80;;;;;;;;;;4993038;28;20030;-81
2023/11/20 10:41:08;;;;;;;0.70;0.70;;;;;;;;;;4993093;28;20038;-82
2023/11/20 10:43:36;;;;;;;0.75;0.70;;;;;;;;;;4994015;28;20125;-80
2023/11/20 10:46:05;;;;;;;0.82;0.77;;;;;;;;;;4994844;28;20037;-84
2023/11/20 10:48:38;;;;;;;0.95;0.80;;;;;;;;;;4993081;28;20113;-79
2023/11/20 10:51:07;;;;;;;1.08;0.82;;;;;;;;;;4993125;28;20018;-80
2023/11/20 10:53:36;;;;;;;0.90;0.80;;;;;;;;;;4992698;28;20036;-80
2023/11/20 10:56:05;;;;;;;1.00;0.80;;;;;;;;;;4992920;28;20064;-79
2023/11/20 10:58:31;;;;;;;3.17;1.55;;;;;;;;;;4992575;28;20069;-80
2023/11/20 11:01:01;;;;;;;0.70;0.70;;;;;;;;;;4994137;28;20084;-80
2023/11/20 11:03:30;;;;;;;0.90;0.80;;;;;;;;;;4993977;28;20037;-80
2023/11/20 11:06:03;;;;;;;1.00;0.80;;;;;;;;;;4994393;28;20034;-80
2023/11/20 11:08:29;;;;;;;0.80;0.70;;;;;;;;;;4992807;28;20058;-80
2023/11/20 11:10:57;;;;;;;0.70;0.70;;;;;;;;;;4993346;28;20034;-80
2023/11/20 11:13:25;;;;;;;0.68;0.68;;;;;;;;;;4992729;28;20026;-80
2023/11/20 11:15:53;;;;;;;0.80;0.80;;;;;;;;;;4995668;28;20018;-81
2023/11/20 11:18:20;;;;;;;1.58;1.23;;;;;;;;;;4994845;28;20038;-80
2023/11/20 11:20:49;;;;;;;1.02;0.90;;;;;;;;;;4994379;28;20097;-80
2023/11/20 11:23:17;;;;;;;0.80;0.70;;;;;;;;;;4996195;28;20026;-80
2023/11/20 11:26:04;;;;;;;0.90;0.80;;;;;;;;;;4995363;28;20492;-79
2023/11/20 11:28:31;;;;;;;0.70;0.70;;;;;;;;;;4996364;28;20034;-80
2023/11/20 11:30:57;;;;;;;1.17;0.90;;;;;;;;;;5001617;28;20113;-79
2023/11/20 11:33:42;;;;;;;1.30;1.08;;;;;;;;;;5004765;28;20027;-79
2023/11/20 11:36:20;;;;;;;0.80;0.73;;;;;;;;;;5006004;28;20057;-80
2023/11/20 11:38:46;;;;;;;0.70;0.70;;;;;;;;;;5004878;28;20023;-78
2023/11/20 11:41:15;;;;;;;1.52;1.05;;;;;;;;;;5008155;28;20049;-78
2023/11/20 11:43:48;;;;;;;0.88;0.70;;;;;;;;;;5007621;28;20109;-77
2023/11/20 11:46:14;;;;;;;0.88;0.77;;;;;;;;;;4997781;28;20023;-78
2023/11/20 11:48:40;;;;;;;1.27;1.17;;;;;;;;;;4997470;28;20367;-77
2023/11/20 11:51:18;;;;;;;0.85;0.70;;;;;;;;;;4996616;28;20452;-78
2023/11/20 11:54:03;;;;;;;1.17;0.90;;;;;;;;;;4998411;28;20027;-79
2023/11/20 11:56:30;;;;;;;0.88;0.82;;;;;;;;;;4997212;28;20375;-78
2023/11/20 11:58:56;;;;;;;1.10;1.00;;;;;;;;;;4996264;28;20022;-79
2023/11/20 12:01:23;;;;;;;2.40;1.60;;;;;;;;;;4996131;28;20046;-79
2023/11/20 12:03:49;;;;;;;1.00;0.80;;;;;;;;;;4995272;28;20027;-79
2023/11/20 12:06:16;;;;;;;1.98;1.25;;;;;;;;;;4995304;28;20492;-80
2023/11/20 12:08:42;;;;;;;0.88;0.82;;;;;;;;;;4996776;28;20104;-79
2023/11/20 12:11:10;;;;;;;2.47;1.60;;;;;;;;;;4995285;28;20493;-80
2023/11/20 12:13:36;;;;;;;1.70;1.27;;;;;;;;;;4995920;28;20057;-79
2023/11/20 12:16:06;;;;;;;1.17;0.88;;;;;;;;;;4996051;28;20121;-81
2023/11/20 12:18:33;;;;;;;2.42;1.00;;;;;;;;;;4996790;28;20033;-80
2023/11/20 12:21:06;;;;;;;2.13;1.73;;;;;;;;;;4995787;28;20030;-79
2023/11/20 12:23:36;;;;;;;0.93;0.80;;;;;;;;;;4997537;28;20022;-79
2023/11/20 12:26:09;;;;;;;0.73;0.70;;;;;;;;;;4995625;28;20031;-80
2023/11/20 12:28:36;;;;;;;1.00;0.80;;;;;;;;;;4995743;28;20054;-80
2023/11/20 12:31:12;;;;;;;1.23;0.93;;;;;;;;;;4995529;28;20454;-79
2023/11/20 12:33:41;;;;;;;1.42;0.85;;;;;;;;;;4995843;28;20026;-80
2023/11/20 12:36:08;;;;;;;1.20;0.90;;;;;;;;;;4995512;28;20374;-79
2023/11/20 12:38:35;;;;;;;0.80;0.80;;;;;;;;;;4995463;28;20044;-80
2023/11/20 12:41:05;;;;;;;1.02;0.75;;;;;;;;;;4994817;28;20521;-79
2023/11/20 12:43:31;;;;;;;0.93;0.73;;;;;;;;;;4995654;28;20172;-79
2023/11/20 12:45:58;;;;;;;1.45;1.20;;;;;;;;;;4994839;28;20026;-79
2023/11/20 12:48:24;;;;;;;1.50;1.08;;;;;;;;;;4995163;28;20057;-78
2023/11/20 12:50:50;;;;;;;1.00;0.80;;;;;;;;;;4995424;28;20112;-79
2023/11/20 12:53:20;;;;;;;1.20;0.88;;;;;;;;;;4995255;28;20031;-79
2023/11/20 12:55:51;;;;;;;0.95;0.88;;;;;;;;;;4997017;28;20104;-79
2023/11/20 12:58:17;;;;;;;0.98;0.80;;;;;;;;;;4991701;28;20030;-81
2023/11/20 13:00:44;;;;;;;1.00;0.80;;;;;;;;;;5013445;28;20022;-78
2023/11/20 13:03:14;;;;;;;1.08;0.80;;;;;;;;;;4993471;28;20459;-79
2023/11/20 13:05:48;;;;;;;2.00;1.23;;;;;;;;;;4995358;28;20030;-79
2023/11/20 13:08:18;;;;;;;1.00;0.80;;;;;;;;;;4993649;28;20026;-80
2023/11/20 13:10:55;;;;;;;0.73;0.70;;;;;;;;;;4995731;28;20027;-79
2023/11/20 13:13:22;;;;;;;0.90;0.70;;;;;;;;;;4994872;28;20070;-79
2023/11/20 13:15:50;;;;;;;1.10;0.80;;;;;;;;;;4996080;28;20026;-79
2023/11/20 13:18:16;;;;;;;1.00;0.80;;;;;;;;;;4994499;28;20023;-80
2023/11/20 13:20:44;;;;;;;1.10;0.80;;;;;;;;;;4994508;28;20077;-79
2023/11/20 13:23:17;;;;;;;1.38;0.98;;;;;;;;;;4994618;28;20049;-79
2023/11/20 13:25:45;;;;;;;0.90;0.70;;;;;;;;;;4995425;28;20026;-80
2023/11/20 13:28:13;;;;;;;1.08;0.80;;;;;;;;;;4992170;28;20088;-79
2023/11/20 13:30:59;;;;;;;1.58;0.98;;;;;;;;;;4990076;28;20398;-79
2023/11/20 13:33:26;;;;;;;0.85;0.70;;;;;;;;;;4990038;28;20026;-79
2023/11/20 13:35:53;;;;;;;0.68;0.68;;;;;;;;;;4994080;28;20034;-80
2023/11/20 13:38:20;;;;;;;0.73;0.70;;;;;;;;;;4994074;28;20022;-79
2023/11/20 13:40:46;;;;;;;2.95;0.98;;;;;;;;;;4995435;28;20129;-78
2023/11/20 13:43:13;;;;;;;0.70;0.70;;;;;;;;;;4993991;28;20120;-79
2023/11/20 13:45:39;;;;;;;1.00;0.70;;;;;;;;;;4994133;28;20022;-80
2023/11/20 13:48:06;;;;;;;1.30;0.90;;;;;;;;;;4995295;28;20026;-79
2023/11/20 13:50:35;;;;;;;1.35;1.05;;;;;;;;;;4990348;28;20027;-80
2023/11/20 13:53:01;;;;;;;0.80;0.75;;;;;;;;;;4984912;28;20033;-79
2023/11/20 13:55:28;;;;;;;1.17;0.82;;;;;;;;;;4988390;28;20037;-79
2023/11/20 13:57:55;;;;;;;1.27;0.90;;;;;;;;;;4992624;28;20106;-79
2023/11/20 14:00:21;;;;;;;1.27;1.15;;;;;;;;;;4993519;28;20022;-79
2023/11/20 14:02:48;;;;;;;1.95;1.30;;;;;;;;;;4995283;28;20040;-79
2023/11/20 14:05:18;;;;;;;5.88;2.00;;;;;;;;;;4992620;28;20030;-80
2023/11/20 14:07:48;;;;;;;3.15;1.90;;;;;;;;;;4992573;28;20170;-79
2023/11/20 14:10:15;;;;;;;1.98;1.50;;;;;;;;;;4993379;28;20169;-80
2023/11/20 14:12:44;;;;;;;1.38;1.02;;;;;;;;;;4995032;28;20049;-79
2023/11/20 14:15:13;;;;;;;2.08;1.50;;;;;;;;;;4993465;28;20035;-80
2023/11/20 14:17:40;;;;;;;2.00;1.30;;;;;;;;;;4993519;28;20023;-80
2023/11/20 14:20:08;;;;;;;2.47;1.15;;;;;;;;;;4993729;28;20493;-79
2023/11/20 14:22:34;;;;;;;1.27;1.00;;;;;;;;;;4993156;28;20041;-79
2023/11/20 14:25:03;;;;;;;1.52;1.02;;;;;;;;;;4993859;28;20047;-79
2023/11/20 14:27:29;;;;;;;1.55;1.17;;;;;;;;;;4993665;28;20382;-80
2023/11/20 14:29:55;;;;;;;1.15;1.00;;;;;;;;;;4993621;28;20026;-80
2023/11/20 14:32:21;;;;;;;1.45;1.10;;;;;;;;;;4990070;28;20360;-80
2023/11/20 14:34:48;;;;;;;1.73;1.63;;;;;;;;;;4978055;28;20038;-80
2023/11/20 14:37:17;;;;;;;7.93;1.65;;;;;;;;;;4992923;28;20084;-80
2023/11/20 14:39:43;;;;;;;2.20;1.50;;;;;;;;;;4992286;28;20049;-79
2023/11/20 14:42:10;;;;;;;2.22;1.63;;;;;;;;;;4993440;28;20030;-79